createdAt,value
2023-04-28T00:02:18.374Z,9.45
2023-04-28T00:04:45.830Z,7.28
2023-04-28T00:07:13.412Z,12.25
2023-04-28T00:09:40.474Z,8.20
2023-04-28T00:12:07.628Z,9.68
2023-04-28T00:14:34.749Z,7.40
2023-04-28T00:17:03.247Z,9.63
2023-04-28T00:19:30.777Z,8.48
2023-04-28T00:21:57.941Z,10.65
2023-04-28T00:24:25.058Z,10.77
2023-04-28T00:26:52.440Z,7.82
2023-04-28T00:29:19.466Z,9.15
2023-04-28T00:31:46.584Z,6.97
2023-04-28T00:34:15.165Z,6.75
2023-04-28T00:36:42.509Z,6.97
2023-04-28T00:39:10.096Z,8.18
2023-04-28T00:41:37.311Z,8.40
2023-04-28T00:44:04.506Z,11.07
2023-04-28T00:46:32.359Z,9.13
2023-04-28T00:48:59.371Z,10.23
2023-04-28T00:51:28.879Z,7.97
2023-04-28T00:53:56.007Z,5.47
2023-04-28T00:56:23.083Z,9.40
2023-04-28T00:58:50.179Z,9.27
2023-04-28T01:01:17.273Z,9.70
2023-04-28T01:03:44.526Z,11.45
2023-04-28T01:06:11.881Z,8.80
2023-04-28T01:08:39.256Z,10.80
2023-04-28T01:11:07.135Z,8.48
2023-04-28T01:13:34.218Z,8.45
2023-04-28T01:16:01.323Z,7.45
2023-04-28T01:18:28.479Z,9.93
2023-04-28T01:20:56.140Z,10.27
2023-04-28T01:23:23.210Z,7.00
2023-04-28T01:25:50.401Z,9.75
2023-04-28T01:28:17.478Z,9.52
2023-04-28T01:30:44.643Z,10.40
2023-04-28T01:33:11.706Z,12.90
2023-04-28T01:35:38.790Z,14.30
2023-04-28T01:38:06.081Z,8.40
2023-04-28T01:40:33.268Z,10.75
2023-04-28T01:43:00.304Z,9.13
2023-04-28T01:45:27.320Z,9.35
2023-04-28T01:47:54.389Z,6.63
2023-04-28T01:50:21.472Z,6.40
2023-04-28T01:52:48.498Z,9.18
2023-04-28T01:55:15.633Z,9.88
2023-04-28T01:57:43.303Z,8.00
2023-04-28T02:00:10.669Z,10.68
2023-04-28T02:02:37.840Z,12.68
2023-04-28T02:05:04.998Z,10.25
2023-04-28T02:07:32.083Z,9.30
2023-04-28T02:09:59.136Z,8.23
2023-04-28T02:12:26.250Z,7.35
2023-04-28T02:14:53.336Z,7.10
2023-04-28T02:17:20.421Z,10.15
2023-04-28T02:19:47.536Z,12.70
2023-04-28T02:22:14.595Z,10.93
2023-04-28T02:24:41.662Z,11.73
2023-04-28T02:27:08.860Z,6.90
2023-04-28T02:29:36.170Z,10.82
2023-04-28T02:32:04.554Z,10.50
2023-04-28T02:34:31.659Z,9.13
2023-04-28T02:36:58.755Z,9.20
2023-04-28T02:39:27.368Z,8.18
2023-04-28T02:41:54.502Z,9.02
2023-04-28T02:44:21.577Z,9.20
2023-04-28T02:46:48.740Z,7.25
2023-04-28T02:49:16.200Z,8.85
2023-04-28T02:51:43.267Z,11.82
2023-04-28T02:54:10.570Z,11.88
2023-04-28T02:56:37.600Z,9.18
2023-04-28T02:59:04.657Z,9.38
2023-04-28T03:01:31.984Z,11.77
2023-04-28T03:03:59.223Z,11.32
2023-04-28T03:06:26.697Z,15.90
2023-04-28T03:08:53.827Z,13.00
2023-04-28T03:11:21.629Z,7.85
2023-04-28T03:13:48.793Z,11.60
2023-04-28T03:16:16.027Z,10.63
2023-04-28T03:18:43.117Z,10.07
2023-04-28T03:21:10.425Z,9.02
2023-04-28T03:23:37.483Z,13.40
2023-04-28T03:26:04.655Z,11.20
2023-04-28T03:28:31.936Z,10.80
2023-04-28T03:30:59.043Z,12.38
2023-04-28T03:33:26.180Z,15.18
2023-04-28T03:35:54.154Z,7.82
2023-04-28T03:38:22.448Z,12.88
2023-04-28T03:40:49.539Z,10.27
2023-04-28T03:43:17.174Z,13.02
2023-04-28T03:45:44.293Z,12.63
2023-04-28T03:48:11.410Z,11.27
2023-04-28T03:50:40.921Z,10.60
2023-04-28T03:53:08.219Z,11.90
2023-04-28T03:55:35.429Z,15.35
2023-04-28T03:58:02.613Z,11.52
2023-04-28T04:00:29.693Z,15.48
2023-04-28T04:02:57.144Z,15.57
2023-04-28T04:05:24.525Z,9.60
2023-04-28T04:07:51.632Z,11.52
2023-04-28T04:10:18.698Z,11.60
2023-04-28T04:12:45.817Z,9.25
2023-04-28T04:15:12.883Z,11.50
2023-04-28T04:17:39.961Z,12.73
2023-04-28T04:20:07.630Z,13.32
2023-04-28T04:22:34.723Z,13.07
2023-04-28T04:25:01.782Z,12.45
2023-04-28T04:27:28.859Z,14.02
2023-04-28T04:29:55.885Z,13.90
2023-04-28T04:32:23.025Z,12.65
2023-04-28T04:34:50.116Z,16.40
2023-04-28T04:37:17.541Z,16.02
2023-04-28T04:39:44.585Z,12.38
2023-04-28T04:42:24.023Z,14.43
2023-04-28T04:47:19.688Z,15.70
2023-04-28T04:49:47.007Z,15.27
2023-04-28T04:52:14.040Z,17.20
2023-04-28T04:54:41.163Z,13.48
2023-04-28T04:57:08.405Z,13.70
2023-04-28T04:59:35.461Z,12.80
2023-04-28T05:02:02.593Z,14.25
2023-04-28T05:04:29.779Z,16.58
2023-04-28T05:06:56.886Z,15.98
2023-04-28T05:09:23.993Z,15.73
2023-04-28T05:11:51.052Z,15.05
2023-04-28T05:14:18.499Z,13.68
2023-04-28T05:16:45.754Z,14.45
2023-04-28T05:19:12.806Z,11.15
2023-04-28T05:21:39.911Z,15.65
2023-04-28T05:24:07.077Z,16.00
2023-04-28T05:26:34.116Z,17.30
2023-04-28T05:29:01.306Z,13.43
2023-04-28T05:31:28.341Z,15.85
2023-04-28T05:33:55.474Z,18.33
2023-04-28T05:36:22.528Z,15.57
2023-04-28T05:38:49.531Z,16.83
2023-04-28T05:41:16.690Z,18.00
2023-04-28T05:43:43.808Z,9.90
2023-04-28T05:46:28.399Z,16.83
2023-04-28T05:48:57.002Z,13.70
2023-04-28T05:51:24.140Z,13.93
2023-04-28T05:53:51.245Z,14.50
2023-04-28T05:56:18.366Z,15.32
2023-04-28T05:58:45.648Z,20.38
2023-04-28T06:01:12.769Z,17.40
2023-04-28T06:03:41.985Z,14.85
2023-04-28T06:06:10.902Z,14.13
2023-04-28T06:08:38.529Z,18.75
2023-04-28T06:11:06.014Z,17.80
2023-04-28T06:13:33.163Z,18.02
2023-04-28T06:16:00.433Z,16.58
2023-04-28T06:18:27.659Z,19.73
2023-04-28T06:20:54.707Z,26.10
2023-04-28T06:23:21.921Z,16.83
2023-04-28T06:25:49.001Z,21.15
2023-04-28T06:28:16.076Z,19.85
2023-04-28T06:30:43.130Z,18.92
2023-04-28T06:33:10.310Z,17.95
2023-04-28T06:35:39.011Z,19.42
2023-04-28T06:38:06.729Z,20.05
2023-04-28T06:40:33.751Z,21.17
2023-04-28T06:43:00.822Z,17.60
2023-04-28T06:45:27.863Z,24.35
2023-04-28T06:47:57.993Z,20.33
2023-04-28T06:50:25.123Z,20.73
2023-04-28T06:52:52.190Z,20.13
2023-04-28T06:55:19.379Z,24.27
2023-04-28T06:57:46.502Z,23.35
2023-04-28T07:00:14.033Z,23.85
2023-04-28T07:02:41.181Z,20.92
2023-04-28T07:05:08.826Z,20.23
2023-04-28T07:07:38.908Z,22.95
2023-04-28T07:10:06.580Z,20.80
2023-04-28T07:12:33.603Z,25.27
2023-04-28T07:15:00.809Z,19.33
2023-04-28T07:17:27.897Z,20.70
2023-04-28T07:19:54.993Z,20.73
2023-04-28T07:22:22.104Z,19.48
2023-04-28T07:24:49.211Z,23.35
2023-04-28T07:27:16.332Z,24.50
2023-04-28T07:29:43.378Z,18.88
2023-04-28T07:32:10.687Z,27.98
2023-04-28T07:34:37.987Z,26.27
2023-04-28T07:37:05.139Z,23.17
2023-04-28T07:39:33.962Z,24.35
2023-04-28T07:42:02.621Z,23.40
2023-04-28T07:44:30.175Z,23.08
2023-04-28T07:46:57.342Z,23.65
2023-04-28T07:49:24.447Z,20.60
2023-04-28T07:51:53.638Z,23.75
2023-04-28T07:54:20.855Z,17.50
2023-04-28T07:56:48.011Z,21.20
2023-04-28T07:59:15.141Z,19.20
2023-04-28T08:01:43.011Z,16.45
2023-04-28T08:04:11.390Z,16.27
2023-04-28T08:06:39.970Z,13.60
2023-04-28T08:09:07.087Z,14.15
2023-04-28T08:11:34.597Z,14.88
2023-04-28T08:14:03.256Z,14.82
2023-04-28T08:16:30.953Z,14.32
2023-04-28T08:18:59.022Z,20.67
2023-04-28T08:21:26.987Z,20.70
2023-04-28T08:23:54.165Z,16.48
2023-04-28T08:26:21.323Z,17.55
2023-04-28T08:28:48.440Z,18.63
2023-04-28T08:31:15.587Z,18.27
2023-04-28T08:33:48.484Z,20.92
2023-04-28T08:36:15.564Z,21.08
2023-04-28T08:38:42.696Z,18.58
2023-04-28T08:41:09.816Z,25.48
2023-04-28T08:43:37.287Z,18.33
2023-04-28T08:46:06.769Z,17.55
2023-04-28T08:48:35.792Z,18.63
2023-04-28T08:51:02.909Z,17.45
2023-04-28T08:53:29.977Z,20.50
2023-04-28T08:55:57.630Z,19.52
2023-04-28T08:58:25.126Z,18.67
2023-04-28T09:00:52.791Z,20.77
2023-04-28T09:03:20.062Z,20.42
2023-04-28T09:05:47.650Z,20.67
2023-04-28T09:08:14.931Z,16.45
2023-04-28T09:10:42.037Z,16.23
2023-04-28T09:13:09.123Z,20.85
2023-04-28T09:15:42.857Z,18.25
2023-04-28T09:18:10.009Z,19.75
2023-04-28T09:20:37.286Z,17.15
2023-04-28T09:23:14.041Z,19.50
2023-04-28T09:25:41.099Z,15.05
2023-04-28T09:28:21.445Z,15.70
2023-04-28T09:30:48.694Z,16.52
2023-04-28T09:33:18.662Z,16.17
2023-04-28T09:35:47.547Z,19.42
2023-04-28T09:38:15.141Z,18.27
2023-04-28T09:41:01.393Z,16.40
2023-04-28T09:43:28.769Z,19.55
2023-04-28T09:46:05.914Z,16.65
2023-04-28T09:48:33.017Z,19.60
2023-04-28T09:51:04.279Z,20.17
2023-04-28T09:53:31.608Z,17.58
2023-04-28T09:55:59.071Z,17.67
2023-04-28T09:58:27.349Z,18.70
2023-04-28T10:00:55.571Z,18.63
2023-04-28T10:03:25.550Z,20.77
2023-04-28T10:05:54.050Z,18.63
2023-04-28T10:08:21.655Z,20.73
2023-04-28T10:10:49.300Z,21.20
2023-04-28T10:13:20.081Z,19.95
2023-04-28T10:15:49.335Z,21.90
2023-04-28T10:18:16.703Z,22.30
2023-04-28T10:20:44.761Z,17.67
2023-04-28T10:23:17.790Z,18.98
2023-04-28T10:25:44.908Z,19.98
2023-04-28T10:28:12.038Z,20.17
2023-04-28T10:30:39.114Z,22.15
2023-04-28T10:33:15.386Z,17.67
2023-04-28T10:35:46.122Z,24.05
2023-04-28T10:38:14.082Z,22.98
2023-04-28T10:40:47.254Z,21.05
2023-04-28T10:43:14.809Z,21.52
2023-04-28T10:45:56.530Z,17.05
2023-04-28T10:48:25.026Z,22.27
2023-04-28T10:51:04.405Z,19.40
2023-04-28T10:53:47.433Z,18.83
2023-04-28T10:56:27.398Z,16.55
2023-04-28T10:58:57.862Z,23.70
2023-04-28T11:01:25.300Z,17.77
2023-04-28T11:04:07.490Z,18.45
2023-04-28T11:06:37.370Z,23.80
2023-04-28T11:09:19.415Z,17.17
2023-04-28T11:11:58.649Z,22.80
2023-04-28T11:14:25.803Z,21.65
2023-04-28T11:16:56.473Z,22.40
2023-04-28T11:19:26.924Z,22.75
2023-04-28T11:21:55.978Z,22.70
2023-04-28T11:24:25.512Z,24.95
2023-04-28T11:26:53.308Z,24.08
2023-04-28T11:29:21.371Z,23.30
2023-04-28T11:31:51.765Z,21.48
2023-04-28T11:34:21.815Z,22.02
2023-04-28T11:36:48.968Z,22.40
2023-04-28T11:39:16.306Z,20.85
2023-04-28T11:41:44.001Z,27.63
2023-04-28T11:44:11.632Z,22.95
2023-04-28T11:46:45.125Z,22.88
2023-04-28T11:49:12.588Z,22.73
2023-04-28T11:51:39.722Z,28.35
2023-04-28T11:54:07.858Z,26.48
2023-04-28T11:56:38.256Z,24.95
2023-04-28T11:59:06.648Z,29.48
2023-04-28T12:01:34.085Z,24.55
2023-04-28T12:04:01.455Z,25.15
2023-04-28T12:06:28.752Z,27.83
2023-04-28T12:08:55.936Z,27.20
2023-04-28T12:11:24.277Z,27.23
2023-04-28T12:14:05.802Z,31.05
2023-04-28T12:16:43.055Z,29.95
2023-04-28T12:19:11.057Z,30.98
2023-04-28T12:21:39.435Z,28.77
2023-04-28T12:24:21.848Z,30.95
2023-04-28T12:26:49.354Z,32.42
2023-04-28T12:29:35.120Z,28.90
2023-04-28T12:32:02.196Z,28.92
2023-04-28T12:34:30.803Z,28.33
2023-04-28T12:36:57.985Z,23.23
2023-04-28T12:39:26.139Z,26.73
2023-04-28T12:41:55.058Z,25.30
2023-04-28T12:44:23.114Z,25.42
2023-04-28T12:46:50.264Z,25.60
2023-04-28T12:49:17.358Z,29.35
2023-04-28T12:51:44.963Z,32.20
2023-04-28T12:54:12.082Z,28.92
2023-04-28T12:56:39.132Z,34.15
2023-04-28T12:59:06.208Z,37.33
2023-04-28T13:01:33.828Z,30.23
2023-04-28T13:04:01.323Z,32.92
2023-04-28T13:06:28.886Z,30.00
2023-04-28T13:08:56.633Z,29.95
2023-04-28T13:11:27.072Z,31.58
2023-04-28T13:16:21.254Z,32.78
2023-04-28T13:18:49.018Z,35.55
2023-04-28T13:21:16.184Z,33.97
2023-04-28T13:23:43.270Z,36.35
2023-04-28T13:26:10.390Z,38.33
2023-04-28T13:28:37.636Z,37.00
2023-04-28T13:31:04.787Z,35.13
2023-04-28T13:33:32.132Z,34.78
2023-04-28T13:35:59.450Z,39.85
2023-04-28T13:38:26.504Z,38.88
2023-04-28T13:40:53.828Z,37.10
2023-04-28T13:43:20.959Z,35.95
2023-04-28T13:45:48.110Z,40.17
2023-04-28T13:48:15.332Z,43.80
2023-04-28T13:50:42.621Z,39.30
2023-04-28T13:53:09.641Z,37.08
2023-04-28T13:55:36.734Z,33.80
2023-04-28T13:58:04.823Z,36.78
2023-04-28T14:00:32.626Z,37.75
2023-04-28T14:03:00.327Z,34.63
2023-04-28T14:05:29.791Z,33.78
2023-04-28T14:07:58.604Z,32.20
2023-04-28T14:10:26.607Z,34.55
2023-04-28T14:12:53.690Z,31.52
2023-04-28T14:15:20.787Z,34.28
2023-04-28T14:17:48.918Z,30.05
2023-04-28T14:20:16.121Z,29.45
2023-04-28T14:22:43.315Z,28.92
2023-04-28T14:25:10.794Z,32.42
2023-04-28T14:27:37.921Z,29.05
2023-04-28T14:30:05.142Z,32.97
2023-04-28T14:32:32.644Z,28.15
2023-04-28T14:34:59.935Z,29.13
2023-04-28T14:37:27.419Z,32.28
2023-04-28T14:39:54.983Z,33.05
2023-04-28T14:42:22.751Z,29.73
2023-04-28T14:44:50.340Z,33.85
2023-04-28T14:47:18.450Z,34.60
2023-04-28T14:49:45.480Z,39.65
2023-04-28T14:52:12.811Z,29.05
2023-04-28T14:54:39.911Z,32.67
2023-04-28T14:57:07.159Z,39.63
2023-04-28T14:59:35.766Z,30.50
2023-04-28T15:02:03.106Z,32.80
2023-04-28T15:04:30.922Z,30.40
2023-04-28T15:06:59.660Z,35.70
2023-04-28T15:09:26.701Z,33.10
2023-04-28T15:11:53.866Z,28.52
2023-04-28T15:14:21.088Z,26.85
2023-04-28T15:16:48.159Z,23.85
2023-04-28T15:19:15.348Z,25.05
2023-04-28T15:21:43.099Z,22.38
2023-04-28T15:24:10.205Z,20.73
2023-04-28T15:26:37.295Z,20.70
2023-04-28T15:29:04.639Z,18.48
2023-04-28T15:31:31.790Z,20.33
2023-04-28T15:33:58.956Z,23.50
2023-04-28T15:36:26.812Z,19.48
2023-04-28T15:38:54.150Z,22.70
2023-04-28T15:41:21.457Z,17.35
2023-04-28T15:43:50.396Z,19.67
2023-04-28T15:46:17.693Z,18.40
2023-04-28T15:48:44.861Z,20.80
2023-04-28T15:51:12.236Z,19.52
2023-04-28T15:53:39.876Z,17.80
2023-04-28T15:56:07.709Z,19.60
2023-04-28T15:58:34.816Z,17.30
2023-04-28T16:01:02.118Z,17.52
2023-04-28T16:03:29.356Z,18.00
2023-04-28T16:05:56.694Z,17.75
2023-04-28T16:08:27.281Z,12.73
2023-04-28T16:10:54.322Z,10.77
2023-04-28T16:13:22.263Z,8.07
2023-04-28T16:15:51.326Z,6.88
2023-04-28T16:18:18.854Z,8.38
2023-04-28T16:20:45.974Z,11.90
2023-04-28T16:23:14.159Z,9.52
2023-04-28T16:25:41.917Z,11.80
2023-04-28T16:28:09.238Z,11.90
2023-04-28T16:30:36.471Z,9.70
2023-04-28T16:33:03.980Z,11.77
2023-04-28T16:35:31.200Z,10.27
2023-04-28T16:37:58.216Z,12.25
2023-04-28T16:40:25.451Z,9.95
2023-04-28T16:42:52.582Z,10.70
2023-04-28T16:45:20.453Z,12.02
2023-04-28T16:47:47.758Z,9.93
2023-04-28T16:50:14.983Z,10.43
2023-04-28T16:52:42.222Z,11.45
2023-04-28T16:55:09.813Z,13.52
2023-04-28T16:57:37.290Z,14.40
2023-04-28T17:00:04.911Z,12.38
2023-04-28T17:02:33.349Z,11.25
2023-04-28T17:05:00.537Z,9.98
2023-04-28T17:07:27.715Z,12.40
2023-04-28T17:09:54.841Z,10.60
2023-04-28T17:12:23.272Z,9.48
2023-04-28T17:14:53.946Z,18.02
2023-04-28T17:17:21.055Z,11.52
2023-04-28T17:19:48.233Z,10.82
2023-04-28T17:22:15.538Z,9.82
2023-04-28T17:24:44.614Z,12.77
2023-04-28T17:27:11.696Z,9.95
2023-04-28T17:29:38.803Z,10.70
2023-04-28T17:32:06.154Z,10.85
2023-04-28T17:34:33.307Z,11.00
2023-04-28T17:37:00.713Z,11.18
2023-04-28T17:39:27.757Z,13.57
2023-04-28T17:41:57.555Z,11.15
2023-04-28T17:44:24.731Z,12.45
2023-04-28T17:46:51.850Z,13.98
2023-04-28T17:49:19.017Z,13.77
2023-04-28T17:51:46.144Z,14.20
2023-04-28T17:54:13.174Z,15.13
2023-04-28T17:56:40.217Z,13.25
2023-04-28T17:59:08.805Z,17.40
2023-04-28T18:01:36.170Z,16.15
2023-04-28T18:04:04.067Z,15.73
2023-04-28T18:06:31.169Z,17.17
2023-04-28T18:08:58.228Z,20.58
2023-04-28T18:11:27.148Z,20.02
2023-04-28T18:13:55.691Z,18.48
2023-04-28T18:16:22.830Z,18.80
2023-04-28T18:18:50.096Z,22.20
2023-04-28T18:21:17.176Z,20.75
2023-04-28T18:23:44.189Z,19.50
2023-04-28T18:26:11.296Z,30.33
2023-04-28T18:28:38.469Z,26.48
2023-04-28T18:31:06.353Z,29.35
2023-04-28T18:33:33.624Z,22.17
2023-04-28T18:36:01.534Z,24.05
2023-04-28T18:38:30.805Z,28.52
2023-04-28T18:40:58.156Z,36.22
2023-04-28T18:43:25.919Z,24.80
2023-04-28T18:45:53.325Z,27.05
2023-04-28T18:48:20.643Z,26.88
2023-04-28T18:50:48.627Z,26.92
2023-04-28T18:53:15.726Z,25.75
2023-04-28T18:55:42.805Z,28.67
2023-04-28T18:58:10.788Z,24.48
2023-04-28T19:00:37.957Z,25.08
2023-04-28T19:03:05.721Z,23.42
2023-04-28T19:05:33.905Z,26.08
2023-04-28T19:08:00.981Z,25.33
2023-04-28T19:10:28.058Z,25.27
2023-04-28T19:12:55.984Z,26.70
2023-04-28T19:15:23.392Z,26.08
2023-04-28T19:17:51.031Z,23.63
2023-04-28T19:20:18.248Z,24.80
2023-04-28T19:22:46.895Z,39.10
2023-04-28T19:25:15.101Z,34.08
2023-04-28T19:27:43.043Z,21.35
2023-04-28T19:30:10.964Z,21.60
2023-04-28T19:32:38.073Z,20.67
2023-04-28T19:35:05.255Z,19.95
2023-04-28T19:37:32.668Z,20.30
2023-04-28T19:39:59.983Z,16.92
2023-04-28T19:42:27.118Z,17.85
2023-04-28T19:44:57.944Z,18.02
2023-04-28T19:47:25.814Z,16.35
2023-04-28T19:49:53.006Z,15.25
2023-04-28T19:52:20.936Z,16.85
2023-04-28T19:54:50.878Z,13.93
2023-04-28T19:57:18.696Z,14.98
2023-04-28T19:59:49.349Z,15.77
2023-04-28T20:02:17.190Z,11.13
2023-04-28T20:04:44.463Z,9.15
2023-04-28T20:07:11.946Z,10.80
2023-04-28T20:09:39.203Z,8.68
2023-04-28T20:12:06.749Z,13.35
2023-04-28T20:14:34.233Z,11.77
2023-04-28T20:17:04.500Z,8.95
2023-04-28T20:19:31.890Z,7.43
2023-04-28T20:21:59.012Z,8.63
2023-04-28T20:24:26.152Z,10.00
2023-04-28T20:26:54.474Z,7.88
2023-04-28T20:29:21.776Z,10.63
2023-04-28T20:31:48.903Z,8.77
2023-04-28T20:34:17.178Z,9.57
2023-04-28T20:36:44.444Z,11.32
2023-04-28T20:39:12.160Z,9.60
2023-04-28T20:41:41.031Z,9.98
2023-04-28T20:44:08.396Z,13.63
2023-04-28T20:46:35.645Z,24.42
2023-04-28T20:49:04.112Z,16.52
2023-04-28T20:51:33.596Z,16.08
2023-04-28T20:54:01.287Z,13.75
2023-04-28T20:56:28.352Z,11.90
2023-04-28T20:58:55.802Z,18.35
2023-04-28T21:01:22.956Z,15.20
2023-04-28T21:03:50.538Z,11.82
2023-04-28T21:06:18.000Z,14.13
2023-04-28T21:08:45.255Z,16.48
2023-04-28T21:11:13.166Z,14.45
2023-04-28T21:13:40.555Z,11.07
2023-04-28T21:16:12.315Z,13.20
2023-04-28T21:18:39.511Z,13.60
2023-04-28T21:21:06.632Z,12.38
2023-04-28T21:23:33.688Z,13.57
2023-04-28T21:26:00.716Z,12.80
2023-04-28T21:28:28.068Z,18.25
2023-04-28T21:30:55.144Z,12.70
2023-04-28T21:33:22.314Z,13.10
2023-04-28T21:35:49.413Z,15.00
2023-04-28T21:38:16.561Z,16.77
2023-04-28T21:40:43.605Z,11.82
2023-04-28T21:43:10.691Z,16.67
2023-04-28T21:45:37.785Z,12.32
2023-04-28T21:48:06.257Z,14.82
2023-04-28T21:50:33.625Z,18.27
2023-04-28T21:53:00.717Z,14.50
2023-04-28T21:55:27.736Z,17.25
2023-04-28T21:57:58.045Z,14.00
2023-04-28T22:00:28.026Z,14.82
2023-04-28T22:02:56.509Z,13.32
2023-04-28T22:05:24.655Z,16.05
2023-04-28T22:07:51.998Z,17.35
2023-04-28T22:10:19.315Z,15.38
2023-04-28T22:12:46.697Z,13.40
2023-04-28T22:15:13.739Z,18.13
2023-04-28T22:17:40.923Z,13.32
2023-04-28T22:20:08.353Z,16.50
2023-04-28T22:22:35.564Z,13.82
2023-04-28T22:25:02.744Z,13.45
2023-04-28T22:27:30.478Z,16.00
2023-04-28T22:29:58.778Z,13.02
2023-04-28T22:32:29.192Z,12.43
2023-04-28T22:34:56.243Z,15.45
2023-04-28T22:37:23.385Z,19.02
2023-04-28T22:39:50.666Z,16.10
2023-04-28T22:42:18.051Z,16.48
2023-04-28T22:44:45.170Z,15.05
2023-04-28T22:47:12.262Z,19.35
2023-04-28T22:49:39.353Z,14.10
2023-04-28T22:52:06.587Z,16.58
2023-04-28T22:54:33.664Z,17.52
2023-04-28T22:57:00.725Z,16.63
2023-04-28T22:59:28.056Z,13.75
2023-04-28T23:01:55.594Z,14.55
2023-04-28T23:04:23.717Z,15.18
2023-04-28T23:06:51.031Z,15.75
2023-04-28T23:09:18.353Z,12.45
2023-04-28T23:11:46.143Z,15.27
2023-04-28T23:14:13.179Z,14.38
2023-04-28T23:16:40.294Z,13.23
2023-04-28T23:19:07.892Z,13.30
2023-04-28T23:21:34.997Z,14.73
2023-04-28T23:24:02.032Z,10.23
2023-04-28T23:26:29.404Z,12.90
2023-04-28T23:28:56.550Z,12.38
2023-04-28T23:31:23.776Z,11.30
2023-04-28T23:33:50.813Z,10.45
2023-04-28T23:36:18.208Z,10.13
2023-04-28T23:38:45.301Z,9.25
2023-04-28T23:41:12.350Z,9.25
2023-04-28T23:43:39.458Z,10.35
2023-04-28T23:46:06.954Z,9.50
2023-04-28T23:48:34.932Z,9.85
2023-04-28T23:51:02.169Z,8.57
2023-04-28T23:53:29.403Z,9.68
2023-04-28T23:55:56.537Z,10.75
2023-04-28T23:58:23.645Z,10.50
